Holeby, Denmark
Current Conditions -  °F | °C
As of 2:20 PM on Thursday 30 Oct 2014 (Local Time) from EDHK Reporting Station
Few Clouds Few Clouds  
Wind Chill: 11°   Ceiling: Unl
Heat Index: 11°   Visibility: 6mi
Dew Point:   Wind: 6mph
Humidity: 67%   Direction: 150°SSE
Pressure: 30.24"   Gusts: NA
Location:  54.71°N, 11.46°E
Report Text: EDHK 301320Z 15005KT 9999 FEW023 11/05 Q1024
Loading
Personal Weather Stations






























Interactive Weather Map
Tropical Storm Tracking
New forecast layout! Learn more

10-Day Weather Forecast

Advertisements
Track Severe Weather on mobile